createdAt,value
2022-12-06T00:01:32.281Z,2.70
2022-12-06T00:04:02.817Z,2.70
2022-12-06T00:06:35.067Z,2.70
2022-12-06T00:09:03.828Z,2.70
2022-12-06T00:11:35.146Z,2.70
2022-12-06T00:14:05.575Z,2.70
2022-12-06T00:16:35.463Z,2.70
2022-12-06T00:19:04.737Z,2.70
2022-12-06T00:21:36.171Z,2.70
2022-12-06T00:24:06.295Z,2.80
2022-12-06T00:26:37.534Z,2.80
2022-12-06T00:29:07.005Z,2.80
2022-12-06T00:31:36.468Z,2.80
2022-12-06T00:34:05.403Z,2.80
2022-12-06T00:36:37.848Z,2.80
2022-12-06T00:39:08.660Z,2.80
2022-12-06T00:41:37.556Z,2.80
2022-12-06T00:44:06.581Z,2.80
2022-12-06T00:46:36.931Z,2.80
2022-12-06T00:49:07.291Z,2.80
2022-12-06T00:51:37.978Z,2.80
2022-12-06T00:54:08.049Z,2.80
2022-12-06T00:56:37.423Z,2.80
2022-12-06T00:59:06.908Z,2.80
2022-12-06T01:01:36.755Z,2.80
2022-12-06T01:04:07.538Z,2.80
2022-12-06T01:06:38.403Z,2.80
2022-12-06T01:09:09.202Z,2.90
2022-12-06T01:11:38.507Z,2.90
2022-12-06T01:14:07.544Z,2.80
2022-12-06T01:16:36.252Z,2.90
2022-12-06T01:19:07.295Z,2.90
2022-12-06T01:21:37.140Z,2.90
2022-12-06T01:24:06.240Z,2.90
2022-12-06T01:26:36.197Z,2.90
2022-12-06T01:29:06.140Z,2.90
2022-12-06T01:31:38.557Z,2.90
2022-12-06T01:34:08.943Z,2.90
2022-12-06T01:36:39.061Z,2.90
2022-12-06T01:39:10.500Z,2.90
2022-12-06T01:41:40.225Z,2.90
2022-12-06T01:44:39.951Z,2.90
2022-12-06T01:47:14.449Z,3.00
2022-12-06T01:49:44.442Z,3.00
2022-12-06T01:52:15.451Z,3.00
2022-12-06T01:54:43.998Z,3.00
2022-12-06T01:57:16.311Z,3.00
2022-12-06T01:59:45.558Z,3.00
2022-12-06T02:02:14.820Z,3.00
2022-12-06T02:04:44.463Z,3.00
2022-12-06T02:07:15.154Z,3.00
2022-12-06T02:09:44.653Z,3.00
2022-12-06T02:12:15.570Z,3.10
2022-12-06T02:14:47.327Z,3.10
2022-12-06T02:17:30.793Z,3.10
2022-12-06T02:20:12.482Z,3.10
2022-12-06T02:23:11.060Z,3.10
2022-12-06T02:26:15.644Z,3.10
2022-12-06T02:29:14.887Z,3.10
2022-12-06T02:31:50.670Z,3.10
2022-12-06T02:34:22.550Z,3.10
2022-12-06T02:36:58.466Z,3.10
2022-12-06T02:39:30.886Z,3.10
2022-12-06T02:42:03.564Z,3.10
2022-12-06T02:44:36.545Z,3.20
2022-12-06T02:47:09.885Z,3.10
2022-12-06T02:49:44.947Z,3.10
2022-12-06T02:52:15.109Z,3.10
2022-12-06T02:54:46.195Z,3.10
2022-12-06T02:57:14.925Z,3.10
2022-12-06T02:59:53.372Z,3.10
2022-12-06T03:02:24.495Z,3.10
2022-12-06T03:05:05.812Z,3.10
2022-12-06T03:07:41.506Z,3.10
2022-12-06T03:10:30.839Z,3.10
2022-12-06T03:13:07.360Z,3.20
2022-12-06T03:15:45.359Z,3.20
2022-12-06T03:18:20.078Z,3.20
2022-12-06T03:20:53.501Z,3.20
2022-12-06T03:23:26.159Z,3.20
2022-12-06T03:25:58.628Z,3.20
2022-12-06T03:28:28.972Z,3.20
2022-12-06T03:31:02.266Z,3.20
2022-12-06T03:33:36.362Z,3.20
2022-12-06T03:36:05.527Z,3.20
2022-12-06T03:38:38.170Z,3.20
2022-12-06T03:41:08.664Z,3.30
2022-12-06T03:43:37.445Z,3.30
2022-12-06T03:46:12.252Z,3.30
2022-12-06T03:48:45.217Z,3.30
2022-12-06T03:51:20.856Z,3.30
2022-12-06T03:53:50.879Z,3.30
2022-12-06T03:56:19.539Z,3.30
2022-12-06T03:58:48.214Z,3.30
2022-12-06T04:01:17.114Z,3.30
2022-12-06T04:03:47.116Z,3.30
2022-12-06T04:06:16.003Z,3.30
2022-12-06T04:08:44.573Z,3.30
2022-12-06T04:11:13.160Z,3.40
2022-12-06T04:13:42.015Z,3.40
2022-12-06T04:16:24.891Z,3.30
2022-12-06T04:18:54.826Z,3.40
2022-12-06T04:21:40.770Z,3.40
2022-12-06T04:24:09.334Z,3.40
2022-12-06T04:26:37.940Z,3.40
2022-12-06T04:29:23.844Z,3.40
2022-12-06T04:32:09.776Z,3.40
2022-12-06T04:34:57.337Z,3.40
2022-12-06T04:37:43.648Z,3.40
2022-12-06T04:40:12.535Z,3.40
2022-12-06T04:42:58.747Z,3.40
2022-12-06T04:45:27.306Z,3.50
2022-12-06T04:47:55.881Z,3.50
2022-12-06T04:50:25.714Z,3.50
2022-12-06T04:52:54.233Z,3.50
2022-12-06T04:55:22.878Z,3.50
2022-12-06T04:57:51.506Z,3.50
2022-12-06T05:00:20.723Z,3.50
2022-12-06T05:02:49.266Z,3.50
2022-12-06T05:05:17.848Z,3.50
2022-12-06T05:07:47.820Z,3.50
2022-12-06T05:10:16.504Z,3.50
2022-12-06T05:12:45.079Z,3.50
2022-12-06T05:15:15.954Z,3.50
2022-12-06T05:17:44.718Z,3.50
2022-12-06T05:20:14.758Z,3.50
2022-12-06T05:22:43.328Z,3.50
2022-12-06T05:25:13.642Z,3.50
2022-12-06T05:27:43.628Z,3.50
2022-12-06T05:30:13.217Z,3.50
2022-12-06T05:32:42.724Z,3.60
2022-12-06T05:35:11.279Z,3.60
2022-12-06T05:37:39.850Z,3.60
2022-12-06T05:40:09.321Z,3.60
2022-12-06T05:42:40.732Z,3.60
2022-12-06T05:45:10.620Z,3.60
2022-12-06T05:47:39.843Z,3.60
2022-12-06T05:50:09.375Z,3.60
2022-12-06T05:52:38.005Z,3.60
2022-12-06T05:55:06.957Z,3.60
2022-12-06T05:57:35.512Z,3.60
2022-12-06T06:00:07.150Z,3.60
2022-12-06T06:02:36.028Z,3.60
2022-12-06T06:05:05.015Z,3.70
2022-12-06T06:07:33.804Z,3.70
2022-12-06T06:10:03.088Z,3.60
2022-12-06T06:12:31.828Z,3.60
2022-12-06T06:15:00.344Z,3.70
2022-12-06T06:17:30.646Z,3.70
2022-12-06T06:19:59.172Z,3.90
2022-12-06T06:22:27.804Z,3.70
2022-12-06T06:24:56.297Z,3.70
2022-12-06T06:27:24.879Z,3.70
2022-12-06T06:29:53.463Z,3.70
2022-12-06T06:32:22.069Z,3.70
2022-12-06T06:34:51.975Z,3.70
2022-12-06T06:37:20.471Z,3.70
2022-12-06T06:39:49.017Z,3.70
2022-12-06T06:42:18.172Z,3.70
2022-12-06T06:44:46.732Z,3.70
2022-12-06T06:47:15.315Z,3.70
2022-12-06T06:49:43.770Z,3.80
2022-12-06T06:52:13.683Z,3.80
2022-12-06T06:54:42.232Z,3.70
2022-12-06T06:57:17.141Z,3.70
2022-12-06T06:59:46.935Z,3.70
2022-12-06T07:02:17.362Z,3.80
2022-12-06T07:04:46.415Z,3.80
2022-12-06T07:07:20.936Z,3.80
2022-12-06T07:09:50.223Z,3.80
2022-12-06T07:12:18.912Z,3.80
2022-12-06T07:14:47.424Z,3.80
2022-12-06T07:17:16.064Z,3.90
2022-12-06T07:19:44.922Z,3.80
2022-12-06T07:22:13.444Z,3.70
2022-12-06T07:24:47.833Z,3.90
2022-12-06T07:27:19.434Z,3.90
2022-12-06T07:29:47.951Z,3.90
2022-12-06T07:32:16.561Z,3.90
2022-12-06T07:34:45.050Z,3.90
2022-12-06T07:37:15.133Z,4.10
2022-12-06T07:39:45.031Z,3.90
2022-12-06T07:42:31.232Z,4.00
2022-12-06T07:45:03.364Z,4.00
2022-12-06T07:47:35.800Z,4.00
2022-12-06T07:50:05.777Z,3.90
2022-12-06T07:52:35.611Z,4.00
2022-12-06T07:55:07.096Z,4.00
2022-12-06T07:57:41.534Z,3.90
2022-12-06T08:00:15.267Z,4.00
2022-12-06T08:02:44.522Z,4.00
2022-12-06T08:05:13.554Z,4.00
2022-12-06T08:07:42.279Z,4.00
2022-12-06T08:10:12.422Z,4.00
2022-12-06T08:12:41.004Z,4.00
2022-12-06T08:15:13.014Z,4.00
2022-12-06T08:17:42.088Z,4.00
2022-12-06T08:20:12.324Z,4.00
2022-12-06T08:22:41.239Z,4.00
2022-12-06T08:25:11.986Z,4.10
2022-12-06T08:27:40.520Z,4.10
2022-12-06T08:30:10.111Z,4.10
2022-12-06T08:32:38.640Z,4.20
2022-12-06T08:35:07.834Z,4.20
2022-12-06T08:37:36.417Z,4.20
2022-12-06T08:40:05.530Z,4.20
2022-12-06T08:42:35.476Z,4.20
2022-12-06T08:45:04.221Z,4.20
2022-12-06T08:47:32.778Z,4.10
2022-12-06T08:50:01.660Z,4.20
2022-12-06T08:52:30.464Z,4.20
2022-12-06T08:54:59.014Z,4.20
2022-12-06T08:57:27.614Z,4.20
2022-12-06T08:59:57.679Z,4.20
2022-12-06T09:02:26.388Z,4.30
2022-12-06T09:04:55.031Z,4.30
2022-12-06T09:07:26.238Z,4.30
2022-12-06T09:09:55.466Z,4.30
2022-12-06T09:12:24.487Z,4.30
2022-12-06T09:14:53.272Z,4.30
2022-12-06T09:17:23.180Z,4.30
2022-12-06T09:19:51.826Z,4.30
2022-12-06T09:22:20.550Z,4.40
2022-12-06T09:24:49.059Z,4.40
2022-12-06T09:27:18.366Z,4.40
2022-12-06T09:29:46.969Z,4.40
2022-12-06T09:32:15.591Z,4.40
2022-12-06T09:34:45.502Z,4.40
2022-12-06T09:37:15.235Z,4.40
2022-12-06T09:39:46.598Z,4.40
2022-12-06T09:42:45.910Z,4.50
2022-12-06T09:45:32.683Z,4.50
2022-12-06T09:48:34.239Z,4.50
2022-12-06T09:51:16.893Z,4.50
2022-12-06T09:54:00.052Z,4.50
2022-12-06T09:56:36.745Z,4.50
2022-12-06T09:59:14.441Z,4.50
2022-12-06T10:02:02.978Z,4.50
2022-12-06T10:04:52.035Z,4.60
2022-12-06T10:07:29.651Z,4.60
2022-12-06T10:10:13.000Z,4.60
2022-12-06T10:12:56.499Z,4.60
2022-12-06T10:15:34.492Z,4.70
2022-12-06T10:18:21.570Z,4.70
2022-12-06T10:20:54.626Z,4.70
2022-12-06T10:23:36.655Z,4.80
2022-12-06T10:26:14.092Z,4.80
2022-12-06T10:28:46.072Z,4.80
2022-12-06T10:31:22.971Z,4.80
2022-12-06T10:33:58.738Z,4.80
2022-12-06T10:36:39.416Z,4.80
2022-12-06T10:39:18.905Z,4.90
2022-12-06T10:41:54.020Z,4.90
2022-12-06T10:44:29.884Z,4.90
2022-12-06T10:47:05.612Z,4.90
2022-12-06T10:49:44.782Z,4.90
2022-12-06T10:52:31.789Z,4.90
2022-12-06T10:55:17.474Z,4.90
2022-12-06T10:57:53.422Z,4.90
2022-12-06T11:00:25.112Z,4.90
2022-12-06T11:02:58.882Z,4.90
2022-12-06T11:05:32.569Z,4.90
2022-12-06T11:08:05.544Z,4.90
2022-12-06T11:10:36.433Z,4.90
2022-12-06T11:13:21.298Z,4.90
2022-12-06T11:15:54.714Z,4.90
2022-12-06T11:18:26.102Z,4.90
2022-12-06T11:21:01.403Z,4.90
2022-12-06T11:23:39.287Z,5.00
2022-12-06T11:26:20.826Z,5.00
2022-12-06T11:29:00.077Z,5.00
2022-12-06T11:31:34.216Z,5.00
2022-12-06T11:34:04.819Z,5.10
2022-12-06T11:36:33.963Z,5.00
2022-12-06T11:39:03.146Z,5.10
2022-12-06T11:41:37.541Z,5.10
2022-12-06T11:44:07.118Z,5.10
2022-12-06T11:46:35.765Z,5.20
2022-12-06T11:49:15.253Z,5.10
2022-12-06T11:51:43.771Z,5.20
2022-12-06T11:54:25.264Z,5.20
2022-12-06T11:56:58.912Z,5.20
2022-12-06T11:59:29.550Z,5.30
2022-12-06T12:02:01.561Z,5.30
2022-12-06T12:04:39.227Z,5.30
2022-12-06T12:07:16.206Z,5.40
2022-12-06T12:09:52.812Z,5.40
2022-12-06T12:12:25.381Z,5.40
2022-12-06T12:14:57.552Z,5.50
2022-12-06T12:17:31.285Z,5.50
2022-12-06T12:20:03.285Z,5.50
2022-12-06T12:22:36.920Z,5.60
2022-12-06T12:25:24.121Z,5.60
2022-12-06T12:27:55.506Z,5.80
2022-12-06T12:30:27.336Z,5.70
2022-12-06T12:33:21.612Z,6.40
2022-12-06T12:35:54.145Z,5.70
2022-12-06T12:38:35.906Z,5.70
2022-12-06T12:41:12.545Z,5.70
2022-12-06T12:44:07.722Z,5.70
2022-12-06T12:46:44.634Z,5.70
2022-12-06T12:49:24.844Z,5.80
2022-12-06T12:51:53.818Z,5.80
2022-12-06T12:54:26.479Z,5.80
2022-12-06T12:56:56.083Z,5.70
2022-12-06T12:59:28.027Z,5.70
2022-12-06T13:02:01.925Z,5.70
2022-12-06T13:04:42.420Z,5.70
2022-12-06T13:07:19.903Z,5.80
2022-12-06T13:10:02.893Z,5.70
2022-12-06T13:12:36.854Z,5.70
2022-12-06T13:15:12.858Z,5.70
2022-12-06T13:17:45.027Z,5.70
2022-12-06T13:20:23.712Z,5.70
2022-12-06T13:22:55.167Z,5.70
2022-12-06T13:25:24.255Z,5.70
2022-12-06T13:27:58.583Z,5.60
2022-12-06T13:30:34.264Z,5.60
2022-12-06T13:33:08.095Z,5.60
2022-12-06T13:35:41.132Z,5.60
2022-12-06T13:38:26.995Z,5.70
2022-12-06T13:40:56.707Z,5.60
2022-12-06T13:43:55.768Z,5.60
2022-12-06T13:46:28.341Z,5.50
2022-12-06T13:48:58.328Z,5.50
2022-12-06T13:51:49.523Z,5.50
2022-12-06T13:54:34.405Z,5.50
2022-12-06T13:57:29.970Z,5.50
2022-12-06T13:59:58.877Z,5.50
2022-12-06T14:02:53.293Z,5.50
2022-12-06T14:08:32.288Z,5.60
2022-12-06T14:11:18.821Z,5.50
2022-12-06T14:13:50.058Z,5.60
2022-12-06T14:16:23.286Z,5.50
2022-12-06T14:18:53.240Z,5.50
2022-12-06T14:21:25.027Z,5.50
2022-12-06T14:23:53.977Z,5.50
2022-12-06T14:26:26.230Z,5.50
2022-12-06T14:28:57.527Z,5.50
2022-12-06T14:31:29.859Z,5.50
2022-12-06T14:33:59.772Z,5.50
2022-12-06T14:36:31.471Z,5.50
2022-12-06T14:39:02.322Z,5.50
2022-12-06T14:41:51.798Z,5.50
2022-12-06T14:44:21.586Z,5.50
2022-12-06T14:46:50.581Z,5.50
2022-12-06T14:49:41.020Z,5.50
2022-12-06T14:52:24.692Z,5.60
2022-12-06T14:54:54.512Z,5.60
2022-12-06T14:57:29.797Z,5.50
2022-12-06T15:00:15.222Z,5.50
2022-12-06T15:03:04.366Z,5.50
2022-12-06T15:05:39.350Z,5.50
2022-12-06T15:08:31.320Z,5.50
2022-12-06T15:11:02.554Z,5.50
2022-12-06T15:13:31.449Z,5.50
2022-12-06T15:16:15.043Z,5.50
2022-12-06T15:18:55.634Z,5.40
2022-12-06T15:21:25.563Z,5.40
2022-12-06T15:23:55.318Z,5.40
2022-12-06T15:26:26.121Z,5.40
2022-12-06T15:28:54.722Z,5.40
2022-12-06T15:31:26.625Z,5.40
2022-12-06T15:33:55.846Z,5.30
2022-12-06T15:36:27.826Z,5.30
2022-12-06T15:38:56.320Z,5.30
2022-12-06T15:41:28.206Z,5.30
2022-12-06T15:43:57.476Z,5.20
2022-12-06T15:46:28.130Z,5.20
2022-12-06T15:48:57.300Z,5.20
2022-12-06T15:51:28.181Z,5.10
2022-12-06T15:53:58.921Z,5.10
2022-12-06T15:56:30.831Z,5.10
2022-12-06T15:58:59.461Z,5.00
2022-12-06T16:01:29.702Z,4.90
2022-12-06T16:03:58.999Z,4.90
2022-12-06T16:06:29.373Z,4.80
2022-12-06T16:08:58.435Z,4.70
2022-12-06T16:11:28.224Z,4.70
2022-12-06T16:13:56.762Z,4.70
2022-12-06T16:16:25.600Z,4.60
2022-12-06T16:18:55.122Z,4.60
2022-12-06T16:21:26.306Z,4.50
2022-12-06T16:24:17.452Z,4.50
2022-12-06T16:26:46.907Z,4.50
2022-12-06T16:29:17.678Z,4.40
2022-12-06T16:31:46.604Z,4.50
2022-12-06T16:34:15.424Z,4.40
2022-12-06T16:36:58.661Z,4.40
2022-12-06T16:39:29.665Z,4.40
2022-12-06T16:41:58.787Z,4.50
2022-12-06T16:44:27.337Z,4.50
2022-12-06T16:46:55.988Z,4.50
2022-12-06T16:52:14.857Z,4.60
2022-12-06T16:54:44.910Z,4.60
2022-12-06T16:57:14.530Z,4.60
2022-12-06T16:59:43.561Z,4.60
2022-12-06T17:02:27.412Z,4.60
2022-12-06T17:04:56.810Z,4.60
2022-12-06T17:07:25.474Z,4.60
2022-12-06T17:09:55.632Z,4.60
2022-12-06T17:12:24.319Z,4.70
2022-12-06T17:14:53.215Z,4.80
2022-12-06T17:17:25.857Z,4.70
2022-12-06T17:19:56.134Z,4.70
2022-12-06T17:22:25.111Z,4.70
2022-12-06T17:24:55.032Z,4.70
2022-12-06T17:27:23.772Z,4.70
2022-12-06T17:29:52.349Z,4.70
2022-12-06T17:32:21.957Z,4.80
2022-12-06T17:34:50.588Z,4.70
2022-12-06T17:37:19.350Z,4.80
2022-12-06T17:39:48.423Z,4.80
2022-12-06T17:42:35.695Z,4.80
2022-12-06T17:45:05.030Z,4.70
2022-12-06T17:47:34.118Z,4.70
2022-12-06T17:50:03.157Z,4.70
2022-12-06T17:52:31.945Z,4.70
2022-12-06T17:55:00.770Z,4.70
2022-12-06T17:57:31.274Z,4.70
2022-12-06T18:00:00.248Z,4.70
2022-12-06T18:02:28.919Z,4.70
2022-12-06T18:04:57.865Z,4.70
2022-12-06T18:07:27.019Z,4.70
2022-12-06T18:09:55.556Z,4.70
2022-12-06T18:12:24.074Z,4.70
2022-12-06T18:14:53.886Z,4.70
2022-12-06T18:17:22.483Z,4.70
2022-12-06T18:19:51.099Z,4.70
2022-12-06T18:22:20.341Z,4.70
2022-12-06T18:24:48.859Z,4.60
2022-12-06T18:27:17.551Z,4.60
2022-12-06T18:29:46.254Z,4.60
2022-12-06T18:32:16.588Z,4.60
2022-12-06T18:34:45.244Z,4.60
2022-12-06T18:37:13.832Z,4.60
2022-12-06T18:39:42.396Z,4.60
2022-12-06T18:42:10.938Z,4.50
2022-12-06T18:44:39.424Z,4.60
2022-12-06T18:47:08.033Z,4.50
2022-12-06T18:49:37.910Z,4.50
2022-12-06T18:52:06.551Z,4.50
2022-12-06T18:54:35.097Z,4.50
2022-12-06T18:57:03.671Z,4.50
2022-12-06T18:59:32.360Z,4.50
2022-12-06T19:02:00.940Z,4.60
2022-12-06T19:04:29.567Z,4.60
2022-12-06T19:06:59.488Z,4.60
2022-12-06T19:09:28.040Z,4.60
2022-12-06T19:11:56.679Z,4.60
2022-12-06T19:14:26.792Z,4.60
2022-12-06T19:16:55.487Z,4.60
2022-12-06T19:19:26.808Z,4.60
2022-12-06T19:21:56.860Z,4.60
2022-12-06T19:24:28.997Z,4.60
2022-12-06T19:26:58.939Z,4.50
2022-12-06T19:29:28.881Z,4.50
2022-12-06T19:31:57.714Z,4.50
2022-12-06T19:34:27.787Z,4.50
2022-12-06T19:36:57.043Z,4.50
2022-12-06T19:39:27.011Z,4.50
2022-12-06T19:42:12.905Z,4.50
2022-12-06T19:44:41.432Z,4.60
2022-12-06T19:47:10.431Z,4.50
2022-12-06T19:49:38.950Z,4.60
2022-12-06T19:52:07.603Z,4.60
2022-12-06T19:54:37.828Z,4.60
2022-12-06T19:57:06.588Z,4.60
2022-12-06T19:59:39.176Z,4.60
2022-12-06T20:02:08.974Z,4.60
2022-12-06T20:04:39.899Z,4.60
2022-12-06T20:07:08.712Z,4.50
2022-12-06T20:09:39.338Z,4.50
2022-12-06T20:12:08.598Z,4.50
2022-12-06T20:14:40.369Z,4.50
2022-12-06T20:17:11.119Z,4.60
2022-12-06T20:19:42.936Z,4.60
2022-12-06T20:22:11.667Z,4.60
2022-12-06T20:24:41.752Z,4.60
2022-12-06T20:27:11.229Z,4.60
2022-12-06T20:29:40.206Z,4.60
2022-12-06T20:32:08.960Z,4.60
2022-12-06T20:34:37.436Z,4.50
2022-12-06T20:37:07.229Z,4.60
2022-12-06T20:39:36.632Z,4.60
2022-12-06T20:42:07.350Z,4.70
2022-12-06T20:44:36.901Z,4.60
2022-12-06T20:47:05.549Z,4.70
2022-12-06T20:49:34.136Z,4.70
2022-12-06T20:52:03.659Z,4.60
2022-12-06T20:54:32.206Z,4.70
2022-12-06T20:57:01.891Z,4.60
2022-12-06T20:59:31.735Z,4.60
2022-12-06T21:02:00.289Z,4.60
2022-12-06T21:04:29.063Z,4.60
2022-12-06T21:06:58.055Z,4.60
2022-12-06T21:09:26.688Z,4.60
2022-12-06T21:11:55.224Z,4.60
2022-12-06T21:14:24.000Z,4.60
2022-12-06T21:16:53.872Z,4.60
2022-12-06T21:19:22.800Z,4.60
2022-12-06T21:21:53.518Z,4.60
2022-12-06T21:24:22.937Z,4.70
2022-12-06T21:26:51.711Z,4.70
2022-12-06T21:29:26.655Z,4.70
2022-12-06T21:32:01.339Z,4.70
2022-12-06T21:34:30.123Z,4.60
2022-12-06T21:36:59.439Z,4.60
2022-12-06T21:39:27.957Z,4.70
2022-12-06T21:41:56.541Z,4.70
2022-12-06T21:44:25.405Z,4.70
2022-12-06T21:46:54.428Z,4.70
2022-12-06T21:49:24.484Z,4.70
2022-12-06T21:52:01.120Z,4.70
2022-12-06T21:54:31.872Z,4.60
2022-12-06T21:57:00.346Z,4.90
2022-12-06T21:59:29.037Z,4.70
2022-12-06T22:01:57.665Z,4.70
2022-12-06T22:04:27.612Z,4.70
2022-12-06T22:06:56.092Z,4.70
2022-12-06T22:09:24.677Z,4.70
2022-12-06T22:11:53.550Z,4.70
2022-12-06T22:14:22.109Z,4.70
2022-12-06T22:16:51.164Z,4.70
2022-12-06T22:19:19.740Z,4.70
2022-12-06T22:21:49.618Z,4.70
2022-12-06T22:24:18.134Z,4.70
2022-12-06T22:26:46.755Z,4.80
2022-12-06T22:29:15.416Z,4.70
2022-12-06T22:31:44.385Z,4.70
2022-12-06T22:34:13.099Z,4.80
2022-12-06T22:36:41.623Z,4.70
2022-12-06T22:39:12.696Z,4.80
2022-12-06T22:41:41.193Z,4.80
2022-12-06T22:44:11.314Z,4.80
2022-12-06T22:46:39.999Z,4.80
2022-12-06T22:49:08.579Z,4.80
2022-12-06T22:51:40.372Z,4.80
2022-12-06T22:54:13.220Z,4.80
2022-12-06T22:56:48.189Z,4.80
2022-12-06T22:59:17.725Z,4.80
2022-12-06T23:01:46.342Z,4.90
2022-12-06T23:04:14.897Z,4.90
2022-12-06T23:06:43.553Z,4.90
2022-12-06T23:09:16.537Z,4.90
2022-12-06T23:11:45.394Z,4.90
2022-12-06T23:14:13.944Z,4.90
2022-12-06T23:16:43.898Z,4.90
2022-12-06T23:19:12.724Z,4.90
2022-12-06T23:21:42.456Z,4.90
2022-12-06T23:24:13.440Z,5.00
2022-12-06T23:26:45.445Z,4.90
2022-12-06T23:29:15.051Z,5.00
2022-12-06T23:31:45.231Z,4.90
2022-12-06T23:34:15.946Z,4.90
2022-12-06T23:36:44.951Z,4.90
2022-12-06T23:39:14.087Z,4.90
2022-12-06T23:41:44.389Z,4.90
2022-12-06T23:44:14.069Z,4.90
2022-12-06T23:46:44.452Z,4.90
2022-12-06T23:49:17.483Z,4.90
2022-12-06T23:51:47.169Z,4.90
2022-12-06T23:54:17.572Z,4.90
2022-12-06T23:56:47.809Z,4.90
2022-12-06T23:59:17.431Z,4.90
